Time;durP1;ratioP1;P1;durP2;ratioP2;P2;SDS_P1;SDS_P2;PMS_P1;PMS_P2;Temp;Humidity;BMP_temperature;BMP_pressure;BME280_temperature;BME280_humidity;BME280_pressure;Samples;Min_cycle;Max_cycle;Signal;HPM_P1;HPM_P2
2023/06/03 00:01:56;;;;;;;10.52;4.85;;;;;;;18.43;47.49;99680.59;7554656;33;39032;-77
2023/06/03 00:06:12;;;;;;;9.55;4.32;;;;;;;18.37;48.10;99680.78;7554403;33;39925;-77
2023/06/03 00:10:29;;;;;;;9.63;4.55;;;;;;;18.37;48.22;99689.06;7554282;33;38528;-77
2023/06/03 00:14:45;;;;;;;9.40;4.57;;;;;;;18.35;47.73;99690.50;7554523;33;37074;-78
2023/06/03 00:19:02;;;;;;;9.40;4.45;;;;;;;18.40;47.91;99690.34;7554327;33;39330;-76
2023/06/03 00:23:18;;;;;;;6.87;3.80;;;;;;;18.20;48.70;99695.38;7536854;33;40975;-77
2023/06/03 00:27:38;;;;;;;9.00;4.53;;;;;;;18.26;48.08;99690.50;7527479;33;38113;-77
2023/06/03 00:31:54;;;;;;;10.05;4.00;;;;;;;18.09;48.86;99685.84;7528646;33;37191;-77
2023/06/03 00:36:11;;;;;;;14.60;4.97;;;;;;;17.98;49.23;99699.13;7528560;33;39251;-76
2023/06/03 00:40:27;;;;;;;8.25;4.28;;;;;;;18.01;48.69;99692.94;7527906;33;40577;-77
2023/06/03 00:44:46;;;;;;;14.15;5.10;;;;;;;17.95;48.87;99696.19;7553106;33;38762;-77
2023/06/03 00:49:02;;;;;;;9.55;4.43;;;;;;;17.98;48.06;99690.84;7553725;33;37138;-77
2023/06/03 00:53:19;;;;;;;12.40;4.80;;;;;;;17.67;48.95;99695.66;7553664;33;39042;-77
2023/06/03 00:57:36;;;;;;;10.32;4.20;;;;;;;17.82;48.26;99697.94;7552249;33;39896;-78
2023/06/03 01:01:52;;;;;;;11.50;4.20;;;;;;;17.62;49.26;99694.66;7553468;33;38019;-77
2023/06/03 01:06:24;;;;;;;8.38;4.22;;;;;;;17.71;48.78;99704.88;7553609;33;36816;-77
2023/06/03 01:11:14;;;;;;;12.07;4.82;;;;;;;17.81;48.81;99701.81;7552397;33;39058;-77
2023/06/03 01:15:32;;;;;;;9.38;5.20;;;;;;;17.45;50.07;99711.97;7550707;33;40777;-77
2023/06/03 01:19:50;;;;;;;10.27;4.93;;;;;;;17.34;50.86;99707.88;7551905;33;37786;-77
2023/06/03 01:24:16;;;;;;;10.02;4.35;;;;;;;17.18;51.60;99706.69;7552010;33;36861;-77
2023/06/03 01:28:32;;;;;;;9.38;4.90;;;;;;;17.22;51.51;99702.16;7539373;33;40117;-77
2023/06/03 01:32:49;;;;;;;11.20;4.70;;;;;;;17.09;52.20;99709.41;7552522;33;39624;-77
2023/06/03 01:37:07;;;;;;;11.60;5.05;;;;;;;17.38;51.37;99705.28;7552515;33;37781;-77
2023/06/03 01:41:25;;;;;;;10.75;4.37;;;;;;;17.35;51.08;99706.75;7552787;33;37251;-77
2023/06/03 01:45:41;;;;;;;8.70;4.90;;;;;;;17.31;50.96;99715.97;7539687;33;39416;-77
2023/06/03 01:49:57;;;;;;;8.63;4.68;;;;;;;17.01;51.83;99701.94;7553379;33;40864;-76
2023/06/03 01:54:14;;;;;;;8.27;4.15;;;;;;;16.88;51.95;99712.72;7542807;33;38615;-77
2023/06/03 01:58:30;;;;;;;11.73;5.03;;;;;;;16.80;52.03;99718.13;7555556;33;37917;-77
2023/06/03 02:02:47;;;;;;;8.07;4.30;;;;;;;16.83;51.73;99718.34;7555829;33;39407;-76
2023/06/03 02:07:03;;;;;;;9.27;4.18;;;;;;;16.84;51.67;99716.41;7555808;33;40079;-76
2023/06/03 02:11:19;;;;;;;10.85;4.78;;;;;;;16.70;51.55;99730.22;7555442;33;37895;-76
2023/06/03 02:15:38;;;;;;;9.75;3.90;;;;;;;16.64;50.92;99735.06;7542697;33;37265;-76
2023/06/03 02:19:54;;;;;;;9.77;4.68;;;;;;;16.54;50.87;99721.53;7555329;33;39230;-76
2023/06/03 02:28:35;;;;;;;10.80;3.97;;;;;;;16.41;51.03;99725.16;7739317;27;20121;-76
2023/06/03 02:32:52;;;;;;;8.57;4.05;;;;;;;16.20;51.56;99749.59;7607153;32;37253;-77
2023/06/03 02:37:10;;;;;;;7.00;4.12;;;;;;;15.97;52.23;99755.06;7607112;32;40170;-77
2023/06/03 02:41:27;;;;;;;10.32;4.37;;;;;;;15.94;52.28;99767.47;7607140;32;39900;-76
2023/06/03 02:45:43;;;;;;;12.32;4.40;;;;;;;16.02;51.95;99765.91;7606901;32;38060;-76
2023/06/03 02:49:59;;;;;;;8.63;4.62;;;;;;;15.75;52.49;99773.09;7606951;32;36973;-76
2023/06/03 02:54:16;;;;;;;8.93;4.12;;;;;;;15.94;51.94;99775.72;7606986;32;39305;-76
2023/06/03 02:58:32;;;;;;;13.82;4.47;;;;;;;15.92;52.04;99772.47;7606812;32;40877;-76
2023/06/03 03:02:52;;;;;;;8.88;4.47;;;;;;;15.83;52.27;99776.25;7606526;32;37865;-77
2023/06/03 03:07:08;;;;;;;11.68;4.75;;;;;;;15.69;52.98;99787.22;7606893;32;37400;-77
2023/06/03 03:11:25;;;;;;;8.68;4.65;;;;;;;15.56;53.32;99786.91;7606812;32;39385;-77
2023/06/03 03:15:41;;;;;;;9.20;4.50;;;;;;;15.69;53.01;99790.78;7606275;32;40239;-77
2023/06/03 03:19:58;;;;;;;6.55;3.97;;;;;;;15.70;52.99;99792.41;7606559;32;37604;-77
2023/06/03 03:24:14;;;;;;;6.65;4.07;;;;;;;15.70;53.24;99799.84;7606710;32;37048;-77
2023/06/03 03:28:31;;;;;;;8.45;4.20;;;;;;;16.00;52.34;99812.16;7606428;32;40182;-77
2023/06/03 03:32:47;;;;;;;10.40;4.60;;;;;;;16.09;52.18;99809.50;7606575;32;39715;-76
2023/06/03 03:37:04;;;;;;;10.63;4.60;;;;;;;15.74;53.21;99826.41;7605825;32;38658;-76
2023/06/03 03:41:21;;;;;;;8.82;4.75;;;;;;;15.68;53.50;99835.06;7606393;32;37978;-77
2023/06/03 03:45:38;;;;;;;8.00;4.30;;;;;;;15.94;52.79;99841.69;7606335;32;39301;-76
2023/06/03 03:49:54;;;;;;;9.55;4.78;;;;;;;15.93;53.01;99839.25;7606280;32;40045;-77
2023/06/03 03:54:11;;;;;;;11.05;4.80;;;;;;;15.86;53.27;99845.16;7606309;32;38364;-76
2023/06/03 03:58:39;;;;;;;11.65;4.50;;;;;;;15.93;53.38;99850.25;7604961;32;37225;-77
2023/06/03 04:02:57;;;;;;;13.40;4.90;;;;;;;15.88;54.09;99858.59;7606241;32;40114;-76
2023/06/03 04:07:21;;;;;;;10.95;4.40;;;;;;;16.01;53.57;99860.53;7606081;32;39918;-76
2023/06/03 04:11:39;;;;;;;12.13;4.57;;;;;;;15.83;54.37;99859.50;7605193;32;38829;-76
2023/06/03 04:16:00;;;;;;;13.20;5.00;;;;;;;15.73;55.60;99860.50;7605859;32;36469;-75
2023/06/03 04:20:40;;;;;;;9.85;4.87;;;;;;;15.97;55.72;99873.28;7605706;32;39457;-76
2023/06/03 04:24:59;;;;;;;8.45;4.68;;;;;;;16.09;55.95;99870.84;7605735;32;40851;-76
2023/06/03 04:29:15;;;;;;;9.57;4.32;;;;;;;15.96;56.89;99877.94;7605747;32;37681;-76
2023/06/03 04:33:32;;;;;;;10.82;4.82;;;;;;;15.86;57.60;99877.34;7605825;32;37980;-77
2023/06/03 04:37:48;;;;;;;9.63;5.18;;;;;;;15.63;58.19;99874.44;7592160;32;40107;-77
2023/06/03 04:42:07;;;;;;;13.35;5.32;;;;;;;15.83;57.59;99884.25;7605121;32;40829;-76
2023/06/03 04:46:31;;;;;;;9.05;4.80;;;;;;;16.00;56.45;99888.34;7604724;32;38659;-67
2023/06/03 04:50:48;;;;;;;9.23;4.95;;;;;;;16.35;56.45;99889.56;7605561;32;37829;-68
2023/06/03 04:55:05;;;;;;;12.68;5.12;;;;;;;16.84;55.35;99884.34;7605315;32;39308;-69
2023/06/03 04:59:21;;;;;;;12.55;4.75;;;;;;;16.87;54.81;99894.75;7598442;32;39934;-69
2023/06/03 05:03:41;;;;;;;10.93;5.00;;;;;;;17.03;54.40;99897.94;7596381;32;38695;-70
2023/06/03 05:07:57;;;;;;;9.73;4.85;;;;;;;17.18;54.24;99897.56;7604892;32;37927;-77
2023/06/03 05:12:13;;;;;;;9.35;4.50;;;;;;;16.82;55.93;99903.91;7604872;32;39136;-77
2023/06/03 05:16:33;;;;;;;11.63;5.05;;;;;;;16.15;57.57;99904.53;7604858;32;40008;-76
2023/06/03 05:20:49;;;;;;;9.65;4.75;;;;;;;16.75;55.87;99908.19;7604615;32;38620;-77
2023/06/03 05:25:06;;;;;;;10.93;4.53;;;;;;;16.78;56.22;99905.66;7600338;32;37735;-76
2023/06/03 05:29:23;;;;;;;7.68;3.78;;;;;;;17.07;55.63;99902.53;7594566;32;39328;-80
2023/06/03 05:33:40;;;;;;;8.10;4.00;;;;;;;17.57;54.43;99893.25;7607557;32;40029;-76
2023/06/03 05:37:56;;;;;;;8.13;3.80;;;;;;;17.96;52.41;99897.22;7607645;32;38802;-76
2023/06/03 05:42:13;;;;;;;10.18;3.92;;;;;;;18.01;50.83;99904.53;7607768;32;37039;-76
2023/06/03 05:46:29;;;;;;;11.48;3.72;;;;;;;18.41;48.75;99901.72;7607598;32;40112;-77
2023/06/03 05:50:51;;;;;;;7.18;3.65;;;;;;;18.51;47.49;99903.38;7607689;32;40690;-77
2023/06/03 05:55:07;;;;;;;7.75;3.30;;;;;;;18.72;46.69;99911.84;7607760;32;38611;-68
2023/06/03 05:59:24;;;;;;;12.35;3.17;;;;;;;19.14;46.21;99913.03;7598308;32;37225;-68
2023/06/03 06:03:41;;;;;;;6.90;3.05;;;;;;;19.28;45.75;99917.53;7608577;32;40308;-69
2023/06/03 06:07:58;;;;;;;9.18;3.17;;;;;;;19.66;44.38;99925.09;7616143;32;40388;-70
2023/06/03 06:12:14;;;;;;;6.47;3.25;;;;;;;19.66;43.16;99925.94;7607311;32;38748;-78
2023/06/03 06:16:31;;;;;;;6.32;3.15;;;;;;;19.50;43.13;99933.91;7599196;32;37004;-78
2023/06/03 06:20:49;;;;;;;6.45;3.60;;;;;;;19.83;43.15;99927.88;7581490;33;39188;-77
2023/06/03 06:25:06;;;;;;;5.93;3.08;;;;;;;20.08;42.37;99926.13;7581273;33;40126;-77
2023/06/03 06:29:23;;;;;;;8.00;3.20;;;;;;;20.03;42.31;99931.84;7596170;32;37888;-76
2023/06/03 06:33:41;;;;;;;5.65;2.80;;;;;;;19.84;42.71;99951.59;7607167;32;37735;-69
2023/06/03 06:37:58;;;;;;;7.25;3.08;;;;;;;20.55;40.96;99946.56;7593422;32;40559;-78
2023/06/03 06:42:33;;;;;;;6.05;2.80;;;;;;;20.54;40.88;99945.78;7607051;32;39971;-77
2023/06/03 06:46:54;;;;;;;5.93;2.60;;;;;;;20.59;39.89;99959.44;7606999;32;37900;-77
2023/06/03 06:51:11;;;;;;;8.35;2.75;;;;;;;20.39;40.59;99962.97;7579026;32;37033;-77
2023/06/03 06:55:34;;;;;;;6.72;2.75;;;;;;;19.70;39.48;99964.81;7581095;33;39390;-78
2023/06/03 06:59:52;;;;;;;4.65;2.42;;;;;;;19.85;38.68;99980.06;7581088;33;39185;-77
2023/06/03 07:04:09;;;;;;;5.87;2.53;;;;;;;20.53;38.37;99982.91;7580896;33;37922;-78
2023/06/03 07:08:28;;;;;;;7.32;2.87;;;;;;;20.51;38.72;99974.12;7586132;32;36983;-76
2023/06/03 07:12:44;;;;;;;9.20;2.95;;;;;;;20.71;37.41;99980.06;7606782;32;39609;-79
2023/06/03 07:17:01;;;;;;;4.30;2.40;;;;;;;21.12;37.47;99982.06;7568933;33;40760;-76
2023/06/03 07:21:23;;;;;;;6.65;2.97;;;;;;;21.22;35.74;99985.59;7580582;33;38652;-77
2023/06/03 07:25:50;;;;;;;4.10;2.15;;;;;;;21.19;37.44;99987.84;7580330;33;37271;-77
2023/06/03 07:30:13;;;;;;;7.60;2.45;;;;;;;21.12;35.73;99989.56;7580727;33;39935;-77
2023/06/03 07:34:30;;;;;;;4.15;2.22;;;;;;;21.38;36.38;99990.16;7567846;33;40781;-76
2023/06/03 07:39:08;;;;;;;7.30;2.62;;;;;;;21.10;36.24;99994.63;7580100;33;37038;-76
2023/06/03 07:43:27;;;;;;;4.62;2.00;;;;;;;21.64;36.32;99986.34;7580355;33;37056;-77
2023/06/03 07:47:46;;;;;;;3.97;2.08;;;;;;;21.46;35.63;99993.22;7579349;33;39397;-74
2023/06/03 07:52:07;;;;;;;3.75;2.03;;;;;;;21.97;34.89;99993.03;7580579;33;39896;-77
2023/06/03 07:56:29;;;;;;;5.82;2.50;;;;;;;21.76;35.25;100000.25;7567225;33;38795;-78
2023/06/03 08:00:54;;;;;;;6.55;2.30;;;;;;;22.13;36.05;99991.22;7580423;33;37065;-78
2023/06/03 08:09:27;;;;;;;3.92;1.70;;;;;;;23.16;30.67;100011.59;7825473;31;2256982;-77
2023/06/03 08:13:45;;;;;;;4.93;1.80;;;;;;;23.16;30.67;100011.59;7866784;31;40659;-78
2023/06/03 08:18:08;;;;;;;4.87;1.77;;;;;;;22.30;30.37;100015.19;7867794;31;38785;-78
2023/06/03 08:22:43;;;;;;;4.45;1.77;;;;;;;22.06;30.16;100025.09;7839680;31;37019;-78
2023/06/03 08:27:01;;;;;;;4.53;1.77;;;;;;;22.02;29.71;100024.16;7839358;31;39800;-77
2023/06/03 08:31:17;;;;;;;8.13;2.00;;;;;;;22.32;29.51;100024.03;7861988;31;40633;-78
2023/06/03 08:35:36;;;;;;;5.65;2.33;;;;;;;22.22;30.56;100027.22;7844063;31;36869;-78
2023/06/03 08:39:55;;;;;;;5.62;2.30;;;;;;;22.23;29.55;100020.50;7838646;31;36025;-77
2023/06/03 08:44:34;;;;;;;3.42;1.60;;;;;;;22.31;27.42;100014.06;7849968;31;38767;-78
2023/06/03 08:49:07;;;;;;;8.23;1.85;;;;;;;22.32;28.40;100015.69;7867242;31;40762;-77
2023/06/03 08:53:26;;;;;;;4.80;1.90;;;;;;;22.64;29.11;100018.69;7867265;31;37935;-79
2023/06/03 08:58:05;;;;;;;3.37;1.50;;;;;;;22.75;28.42;100019.87;7866197;31;35794;-79
2023/06/03 09:02:22;;;;;;;3.30;1.58;;;;;;;22.88;27.87;100018.66;7838742;31;38839;-78
2023/06/03 09:06:45;;;;;;;3.72;1.73;;;;;;;23.01;28.39;100018.69;7838254;31;40867;-79
2023/06/03 09:11:04;;;;;;;4.07;1.70;;;;;;;22.68;26.81;100012.09;7839387;31;38174;-78
2023/06/03 09:15:23;;;;;;;2.78;1.60;;;;;;;23.25;27.72;100021.44;7838186;31;37558;-79
2023/06/03 09:19:40;;;;;;;6.18;1.70;;;;;;;23.55;27.31;100026.66;7825422;32;39131;-78
2023/06/03 09:23:57;;;;;;;7.10;1.80;;;;;;;23.57;26.58;100021.53;7820883;32;39958;-78
2023/06/03 09:28:15;;;;;;;4.62;1.80;;;;;;;23.73;27.40;100015.22;7820567;31;38023;-79
2023/06/03 09:32:36;;;;;;;5.90;1.65;;;;;;;23.80;27.25;100026.53;7832050;31;36754;-78
2023/06/03 09:36:53;;;;;;;6.12;1.40;;;;;;;24.25;26.25;100024.56;7848471;31;39207;-78
2023/06/03 09:41:17;;;;;;;3.33;1.70;;;;;;;24.32;26.71;100022.00;7845037;31;40886;-78
2023/06/03 09:45:36;;;;;;;2.10;1.62;;;;;;;24.41;26.13;100021.81;7820541;32;38053;-78
2023/06/03 09:50:06;;;;;;;4.05;1.48;;;;;;;24.13;26.58;100020.72;7837700;31;36778;-78
2023/06/03 09:54:23;;;;;;;2.95;1.40;;;;;;;24.27;24.41;100011.91;7848016;31;38059;-79
2023/06/03 09:58:41;;;;;;;4.05;1.67;;;;;;;24.45;24.50;100015.12;7848036;31;39745;-78
2023/06/03 10:03:08;;;;;;;5.22;1.67;;;;;;;24.59;24.64;100017.50;7847930;31;37129;-78
2023/06/03 10:07:26;;;;;;;3.12;1.50;;;;;;;24.58;24.80;100015.06;7847530;31;37611;-78
2023/06/03 10:11:50;;;;;;;3.58;1.70;;;;;;;24.47;21.90;100020.34;7846791;31;39196;-78
2023/06/03 10:16:12;;;;;;;2.55;1.60;;;;;;;24.31;21.07;100012.00;7847840;31;40918;-78
2023/06/03 10:20:41;;;;;;;4.22;1.75;;;;;;;24.44;22.73;100015.50;7840487;31;37999;-78
2023/06/03 10:24:59;;;;;;;5.65;1.62;;;;;;;24.47;23.57;100015.56;7847847;31;38844;-78
2023/06/03 10:29:18;;;;;;;2.95;1.55;;;;;;;24.84;22.43;100006.94;7845455;31;39097;-77
2023/06/03 10:33:38;;;;;;;5.87;1.65;;;;;;;25.01;24.52;100011.31;7847779;31;40847;-78
2023/06/03 10:37:55;;;;;;;2.25;1.50;;;;;;;24.88;22.38;100001.44;7847540;31;36891;-78
2023/06/03 10:42:14;;;;;;;2.83;1.52;;;;;;;24.83;21.27;100010.09;7847680;31;36887;-78
2023/06/03 10:46:37;;;;;;;6.45;1.80;;;;;;;24.74;22.12;100011.09;7847541;31;38123;-77
2023/06/03 10:51:20;;;;;;;7.47;1.90;;;;;;;25.11;24.76;100010.72;7846245;31;40027;-78
2023/06/03 10:55:54;;;;;;;4.07;1.98;;;;;;;25.05;23.70;100011.38;7847337;31;38030;-78
2023/06/03 11:00:12;;;;;;;4.18;1.40;;;;;;;25.40;23.36;100011.34;7847435;31;37567;-78
2023/06/03 11:04:35;;;;;;;3.85;1.67;;;;;;;25.63;21.99;100002.22;7846113;31;39742;-79
2023/06/03 11:09:08;;;;;;;3.50;1.50;;;;;;;25.58;23.25;100006.16;7846906;31;39717;-78
2023/06/03 11:13:41;;;;;;;1.85;1.48;;;;;;;26.09;21.51;100002.31;7845287;31;38042;-78
2023/06/03 11:18:13;;;;;;;;;;;;;;;26.27;22.53;100001.81;7844310;31;36701;-77
2023/06/03 11:22:29;;;;;;;5.78;1.85;;;;;;;26.22;21.65;99994.59;7846969;31;40078;-79
2023/06/03 11:26:46;;;;;;;10.98;1.73;;;;;;;26.61;24.63;100000.81;7846801;31;40873;-78
2023/06/03 11:31:03;;;;;;;3.40;1.48;;;;;;;27.14;24.05;99990.78;7845592;31;37924;-78
2023/06/03 11:35:28;;;;;;;3.30;1.48;;;;;;;27.65;22.77;99990.25;7846967;31;36892;-80
2023/06/03 11:40:05;;;;;;;3.28;1.65;;;;;;;27.86;21.24;99984.06;7832208;31;39102;-78
2023/06/03 11:44:23;;;;;;;4.68;1.70;;;;;;;27.72;24.92;99984.72;7827993;31;39993;-78
2023/06/03 11:48:44;;;;;;;;;;;;;;;27.93;22.17;99983.34;7839311;31;38728;-79
2023/06/03 11:53:01;;;;;;;2.95;1.55;;;;;;;27.31;21.67;99979.03;7846817;31;37463;-78
2023/06/03 11:57:18;;;;;;;4.78;2.20;;;;;;;27.45;24.20;99975.63;7846464;31;39191;-79
2023/06/03 12:01:35;;;;;;;7.12;2.08;;;;;;;27.51;24.39;99976.06;7821672;31;40831;-79
2023/06/03 12:05:53;;;;;;;4.15;2.10;;;;;;;27.63;24.48;99964.63;7844905;31;38551;-80
2023/06/03 12:10:11;;;;;;;3.72;1.90;;;;;;;28.13;25.36;99969.94;7845066;31;36669;-78
2023/06/03 12:14:32;;;;;;;5.90;2.00;;;;;;;28.22;19.79;99964.81;7845459;31;39879;-76
2023/06/03 12:18:49;;;;;;;4.18;2.22;;;;;;;27.69;21.26;99962.28;7836636;31;39984;-79
2023/06/03 12:23:06;;;;;;;3.50;2.12;;;;;;;27.39;21.51;99965.97;7818262;32;37741;-79
2023/06/03 12:27:26;;;;;;;5.53;2.12;;;;;;;27.48;25.89;99966.47;7817966;32;36927;-78
2023/06/03 12:32:00;;;;;;;4.30;2.25;;;;;;;27.88;24.37;99972.47;7837961;31;39174;-78
2023/06/03 12:36:22;;;;;;;6.55;2.35;;;;;;;28.45;22.21;99970.19;7845575;31;39940;-77
2023/06/03 12:40:38;;;;;;;3.95;2.37;;;;;;;28.44;22.27;99957.38;7844383;31;38036;-79
2023/06/03 12:44:54;;;;;;;8.55;2.78;;;;;;;28.18;22.44;99960.34;7844800;31;36593;-78
2023/06/03 12:49:15;;;;;;;8.68;3.10;;;;;;;28.37;24.39;99946.13;7843731;31;39206;-78
2023/06/03 12:53:36;;;;;;;4.55;2.45;;;;;;;28.76;22.48;99942.78;7827196;31;39760;-80
2023/06/03 12:57:53;;;;;;;10.05;2.35;;;;;;;29.28;23.54;99945.44;7830740;31;37891;-83
2023/06/03 13:02:10;;;;;;;10.77;2.75;;;;;;;28.66;19.85;99949.13;7847323;31;37039;-76
2023/06/03 13:06:27;;;;;;;5.25;2.35;;;;;;;28.35;19.74;99945.69;7833786;31;39283;-83
2023/06/03 13:10:45;;;;;;;5.10;2.30;;;;;;;29.08;21.49;99933.72;7821058;32;40162;-82
2023/06/03 13:15:03;;;;;;;8.68;2.08;;;;;;;29.36;22.31;99938.66;7822433;31;36837;-84
2023/06/03 13:19:22;;;;;;;4.95;2.15;;;;;;;29.59;20.05;99929.88;7848711;31;37074;-83
2023/06/03 13:23:38;;;;;;;7.35;2.20;;;;;;;29.68;20.56;99917.47;7827091;31;39230;-81
2023/06/03 13:27:55;;;;;;;5.78;2.40;;;;;;;30.02;20.15;99923.53;7838229;31;39621;-81
2023/06/03 13:32:12;;;;;;;4.60;2.25;;;;;;;30.07;18.97;99917.53;7831729;31;37941;-81
2023/06/03 13:36:30;;;;;;;38.90;5.47;;;;;;;29.59;18.36;99923.47;7819876;32;36184;-82
2023/06/03 13:40:47;;;;;;;5.78;2.17;;;;;;;30.08;20.98;99929.56;7821006;32;39843;-84
2023/06/03 13:45:06;;;;;;;4.25;2.28;;;;;;;29.87;20.02;99922.75;7820866;32;39042;-81
2023/06/03 13:49:24;;;;;;;6.65;2.45;;;;;;;30.18;19.30;99920.31;7828133;31;37717;-80
2023/06/03 13:53:43;;;;;;;5.15;2.40;;;;;;;30.41;18.75;99922.75;7819480;31;36822;-81
2023/06/03 13:58:00;;;;;;;7.68;2.30;;;;;;;30.76;20.63;99917.44;7838139;31;38914;-80
2023/06/03 14:02:17;;;;;;;6.87;2.50;;;;;;;30.83;18.84;99909.78;7842959;31;39888;-83
2023/06/03 14:06:36;;;;;;;8.07;2.65;;;;;;;31.34;17.79;99906.75;7847307;31;37838;-81
2023/06/03 14:10:53;;;;;;;5.62;2.70;;;;;;;30.95;17.26;99904.94;7847957;31;37633;-83
2023/06/03 14:15:12;;;;;;;5.12;2.60;;;;;;;30.86;18.80;99903.34;7845979;31;39172;-81
2023/06/03 14:19:30;;;;;;;4.47;2.40;;;;;;;30.54;19.47;99906.25;7847420;31;40216;-79
2023/06/03 14:23:46;;;;;;;6.22;2.42;;;;;;;31.02;19.08;99890.84;7820273;32;37927;-80
2023/06/03 14:28:04;;;;;;;4.05;2.30;;;;;;;31.33;19.53;99891.88;7834608;31;37680;-78
2023/06/03 14:33:04;;;;;;;3.53;2.00;;;;;;;31.41;18.29;99887.81;7799005;31;2326934;-78
2023/06/03 14:37:21;;;;;;;4.78;2.10;;;;;;;31.12;17.77;99880.75;7866965;31;40639;-81
2023/06/03 14:41:38;;;;;;;7.30;2.17;;;;;;;31.57;17.55;99864.00;7867520;31;37886;-79
2023/06/03 14:45:55;;;;;;;5.12;1.95;;;;;;;31.86;15.43;99866.56;7867798;31;36992;-80
2023/06/03 14:50:13;;;;;;;4.65;1.90;;;;;;;31.92;16.09;99865.72;7867906;31;38165;-79
2023/06/03 14:54:32;;;;;;;5.70;2.35;;;;;;;31.63;16.69;99865.16;7867763;31;39014;-80
2023/06/03 14:58:53;;;;;;;8.63;3.97;;;;;;;31.46;16.18;99864.06;7867579;31;38654;-79
2023/06/03 15:03:10;;;;;;;6.62;2.00;;;;;;;31.41;14.46;99856.84;7867374;31;37689;-78
2023/06/03 15:07:28;;;;;;;1.75;1.48;;;;;;;31.03;15.57;99861.50;7867453;31;39080;-79
2023/06/03 15:11:46;;;;;;;6.15;1.85;;;;;;;30.67;15.32;99862.41;7842041;31;38943;-81
2023/06/03 15:16:05;;;;;;;2.70;1.60;;;;;;;30.60;17.31;99859.62;7839695;31;37884;-81
2023/06/03 15:20:21;;;;;;;3.53;1.80;;;;;;;30.67;16.19;99865.22;7839581;31;36563;-80
2023/06/03 15:24:40;;;;;;;5.90;1.60;;;;;;;30.88;16.81;99855.09;7845107;31;38279;-80
2023/06/03 15:28:57;;;;;;;8.02;1.73;;;;;;;31.32;16.54;99850.03;7855940;31;39755;-83
2023/06/03 15:33:14;;;;;;;5.47;2.03;;;;;;;31.17;16.51;99844.50;7867137;31;38817;-82
2023/06/03 15:37:34;;;;;;;3.90;1.12;;;;;;;31.21;14.65;99850.13;7867139;31;36669;-84
2023/06/03 15:41:54;;;;;;;6.62;2.25;;;;;;;30.79;16.53;99840.66;7857624;31;39492;-83
2023/06/03 15:46:13;;;;;;;4.20;1.52;;;;;;;31.34;15.10;99842.81;7823852;31;39929;-84
2023/06/03 15:50:30;;;;;;;2.87;1.50;;;;;;;31.24;14.12;99838.03;7845523;31;38391;-82
2023/06/03 15:54:47;;;;;;;1.40;1.10;;;;;;;31.08;14.07;99842.16;7834041;31;36950;-83
2023/06/03 15:59:04;;;;;;;3.60;1.73;;;;;;;31.06;14.83;99841.78;7842829;31;38815;-86
2023/06/03 16:03:22;;;;;;;1.48;1.20;;;;;;;30.69;13.76;99848.72;7843440;31;39894;-87
2023/06/03 16:07:39;;;;;;;3.65;1.70;;;;;;;30.50;14.22;99846.41;7839650;31;38416;-83
2023/06/03 16:11:58;;;;;;;2.15;1.33;;;;;;;30.02;15.45;99844.06;7840855;31;35995;-82
2023/06/03 16:16:15;;;;;;;3.97;1.55;;;;;;;29.91;13.91;99842.06;7846569;31;38098;-82
2023/06/03 16:20:32;;;;;;;3.10;1.30;;;;;;;29.48;14.78;99838.41;7843220;31;39848;-84
2023/06/03 16:24:51;;;;;;;7.18;1.50;;;;;;;29.44;14.34;99849.63;7844340;31;37032;-84
2023/06/03 16:29:09;;;;;;;5.07;1.50;;;;;;;29.34;13.65;99844.81;7834810;31;37552;-84
2023/06/03 16:33:28;;;;;;;3.20;1.30;;;;;;;29.03;13.95;99852.72;7844109;31;39795;-82
2023/06/03 16:37:52;;;;;;;3.17;1.50;;;;;;;29.13;14.86;99848.31;7843246;31;39884;-83
2023/06/03 16:42:09;;;;;;;4.43;1.40;;;;;;;28.69;14.98;99847.38;7842767;31;37578;-82
2023/06/03 16:46:28;;;;;;;2.45;1.40;;;;;;;28.89;15.19;99856.28;7845129;31;36885;-83
2023/06/03 16:50:45;;;;;;;4.50;1.73;;;;;;;28.16;15.95;99856.25;7844577;31;39182;-83
2023/06/03 16:55:07;;;;;;;2.85;1.20;;;;;;;28.26;16.14;99861.13;7841199;31;40007;-82
2023/06/03 16:59:24;;;;;;;2.90;1.10;;;;;;;27.71;17.32;99859.09;7844221;31;38772;-83
2023/06/03 17:03:43;;;;;;;4.45;1.60;;;;;;;27.92;16.89;99864.06;7845013;31;36756;-85
2023/06/03 17:08:02;;;;;;;3.78;1.60;;;;;;;27.70;17.55;99869.47;7846817;31;38892;-83
2023/06/03 17:12:21;;;;;;;3.78;1.58;;;;;;;27.83;17.37;99867.19;7846594;31;40213;-83
2023/06/03 17:16:41;;;;;;;1.42;1.20;;;;;;;27.64;17.50;99864.63;7845162;31;37539;-82
2023/06/03 17:21:00;;;;;;;5.82;2.70;;;;;;;27.50;18.02;99859.69;7846739;31;36961;-83
2023/06/03 17:25:17;;;;;;;4.03;1.50;;;;;;;27.10;18.69;99869.66;7846924;31;40030;-85
2023/06/03 17:29:35;;;;;;;3.35;1.37;;;;;;;26.93;19.36;99874.62;7843253;31;38947;-85
2023/06/03 17:33:54;;;;;;;3.22;1.52;;;;;;;26.67;19.76;99880.31;7843740;31;36928;-85
2023/06/03 17:38:12;;;;;;;5.25;1.70;;;;;;;26.61;20.15;99875.00;7844029;31;35937;-83
2023/06/03 17:42:34;;;;;;;;;;;;;;;26.02;20.88;99884.91;7840124;31;39219;-85
2023/06/03 17:46:51;;;;;;;2.75;1.30;;;;;;;25.85;21.63;99903.75;7841777;31;41111;-89
2023/06/03 17:51:12;;;;;;;5.35;1.70;;;;;;;25.23;23.17;99906.59;7844262;31;37444;-84
2023/06/03 17:55:30;;;;;;;6.35;1.67;;;;;;;24.96;24.30;99908.41;7840009;31;36346;-85
2023/06/03 17:59:47;;;;;;;7.97;1.45;;;;;;;24.92;24.40;99907.50;7842938;31;39193;-75
2023/06/03 18:04:05;;;;;;;5.12;2.10;;;;;;;24.56;24.58;99917.91;7846160;31;40034;-81
2023/06/03 18:08:26;;;;;;;3.12;1.55;;;;;;;24.07;25.05;99923.88;7846469;31;36975;-82
2023/06/03 18:12:44;;;;;;;3.37;1.40;;;;;;;24.15;24.07;99920.09;7846481;31;37668;-82
2023/06/03 18:17:01;;;;;;;4.15;2.00;;;;;;;23.72;24.85;99936.47;7846338;31;39264;-81
2023/06/03 18:21:18;;;;;;;5.22;1.70;;;;;;;23.63;24.18;99933.88;7846234;31;39885;-80
2023/06/03 18:25:38;;;;;;;11.95;5.30;;;;;;;23.30;24.62;99942.50;7846306;31;37885;-78
2023/06/03 18:29:55;;;;;;;4.55;2.65;;;;;;;23.23;24.09;99948.66;7845472;31;38509;-84
2023/06/03 18:34:15;;;;;;;2.25;1.25;;;;;;;22.85;25.24;99949.91;7846101;31;38180;-82
2023/06/03 18:38:36;;;;;;;2.83;1.58;;;;;;;22.50;25.93;99944.03;7835793;31;39957;-83
2023/06/03 18:42:55;;;;;;;5.12;1.40;;;;;;;22.40;26.42;99950.88;7818088;32;37931;-84
2023/06/03 18:47:14;;;;;;;3.05;1.40;;;;;;;22.04;26.63;99966.34;7818228;32;36939;-83
2023/06/03 18:51:35;;;;;;;3.92;1.50;;;;;;;21.73;27.25;99973.22;7818005;32;38944;-83
2023/06/03 18:55:54;;;;;;;5.43;1.60;;;;;;;21.59;28.30;99983.78;7817870;32;39625;-82
2023/06/03 19:00:12;;;;;;;2.33;1.60;;;;;;;21.48;28.72;99988.16;7816374;32;37943;-83
2023/06/03 19:04:30;;;;;;;7.75;1.87;;;;;;;21.25;29.38;99991.25;7818407;31;36835;-81
2023/06/03 19:08:51;;;;;;;6.15;1.60;;;;;;;21.06;29.82;99996.44;7844368;31;38596;-81
2023/06/03 19:13:09;;;;;;;2.35;1.50;;;;;;;20.69;30.17;100001.75;7844973;31;39938;-80
2023/06/03 19:17:35;;;;;;;1.62;1.23;;;;;;;20.49;30.45;100012.44;7845288;31;38708;-82
2023/06/03 19:21:55;;;;;;;4.78;1.40;;;;;;;20.41;30.42;100011.31;7848638;31;37678;-82
2023/06/03 19:26:14;;;;;;;5.37;2.00;;;;;;;20.19;29.82;100017.09;7847994;31;38369;-81
2023/06/03 19:30:31;;;;;;;4.18;1.60;;;;;;;19.99;30.65;100021.38;7848054;31;40746;-81
2023/06/03 19:34:49;;;;;;;2.45;1.50;;;;;;;19.99;30.43;100013.91;7845062;31;37186;-82
2023/06/03 19:39:08;;;;;;;4.43;1.55;;;;;;;19.78;31.06;100022.09;7848552;31;35858;-81
2023/06/03 19:43:24;;;;;;;6.12;1.48;;;;;;;19.45;31.62;100022.56;7848469;31;39158;-80
2023/06/03 19:47:43;;;;;;;3.45;1.75;;;;;;;19.29;33.08;100029.72;7839962;31;38844;-81
2023/06/03 19:52:02;;;;;;;7.10;1.73;;;;;;;19.71;32.28;100030.03;7825896;31;38000;-81
2023/06/03 19:56:21;;;;;;;4.82;1.70;;;;;;;19.22;32.53;100046.00;7832448;31;35800;-80
2023/06/03 20:00:37;;;;;;;7.93;2.03;;;;;;;19.21;31.82;100045.16;7834173;31;39575;-81
2023/06/03 20:04:56;;;;;;;6.18;1.80;;;;;;;19.11;31.42;100042.72;7831605;31;39552;-80
2023/06/03 20:09:14;;;;;;;2.80;1.55;;;;;;;18.83;32.18;100051.25;7831657;31;37939;-81
2023/06/03 20:13:32;;;;;;;4.43;1.75;;;;;;;19.30;32.10;100047.94;7829569;31;37108;-80
2023/06/03 20:17:52;;;;;;;3.97;1.62;;;;;;;18.90;33.15;100046.09;7831473;31;38878;-79
2023/06/03 20:22:09;;;;;;;4.53;1.70;;;;;;;18.82;33.16;100046.87;7832477;31;38476;-80
2023/06/03 20:26:29;;;;;;;3.05;1.50;;;;;;;18.55;32.70;100051.47;7831583;31;38029;-81